sensor_id;sensor_type;location;lat;lon;timestamp;P1;durP1;ratioP1;P2;durP2;ratioP2
34072;SDS011;20346;52.702;16.886;2022-11-03T00:02:27;13.60;;;7.83;;
34072;SDS011;20346;52.702;16.886;2022-11-03T00:05:12;10.43;;;7.42;;
34072;SDS011;20346;52.702;16.886;2022-11-03T00:08:16;14.68;;;7.60;;
34072;SDS011;20346;52.702;16.886;2022-11-03T00:11:06;13.68;;;7.53;;
34072;SDS011;20346;52.702;16.886;2022-11-03T00:13:56;13.30;;;7.55;;
34072;SDS011;20346;52.702;16.886;2022-11-03T00:16:42;13.30;;;7.15;;
34072;SDS011;20346;52.702;16.886;2022-11-03T00:19:28;12.50;;;7.37;;
34072;SDS011;20346;52.702;16.886;2022-11-03T00:22:13;17.57;;;8.23;;
34072;SDS011;20346;52.702;16.886;2022-11-03T00:24:58;12.85;;;7.72;;
34072;SDS011;20346;52.702;16.886;2022-11-03T00:27:43;17.17;;;7.58;;
34072;SDS011;20346;52.702;16.886;2022-11-03T00:30:28;14.33;;;8.28;;
34072;SDS011;20346;52.702;16.886;2022-11-03T00:33:13;16.87;;;8.48;;
34072;SDS011;20346;52.702;16.886;2022-11-03T00:35:59;17.80;;;9.10;;
34072;SDS011;20346;52.702;16.886;2022-11-03T00:38:44;22.93;;;8.88;;
34072;SDS011;20346;52.702;16.886;2022-11-03T00:41:30;13.90;;;8.98;;
34072;SDS011;20346;52.702;16.886;2022-11-03T00:44:15;17.75;;;8.70;;
34072;SDS011;20346;52.702;16.886;2022-11-03T00:47:00;18.52;;;9.85;;
34072;SDS011;20346;52.702;16.886;2022-11-03T00:49:44;21.02;;;9.95;;
34072;SDS011;20346;52.702;16.886;2022-11-03T00:52:29;17.52;;;9.33;;
34072;SDS011;20346;52.702;16.886;2022-11-03T00:55:15;19.35;;;8.05;;
34072;SDS011;20346;52.702;16.886;2022-11-03T00:57:59;15.28;;;8.55;;
34072;SDS011;20346;52.702;16.886;2022-11-03T01:00:44;18.57;;;9.05;;
34072;SDS011;20346;52.702;16.886;2022-11-03T01:03:30;19.27;;;9.40;;
34072;SDS011;20346;52.702;16.886;2022-11-03T01:06:16;15.13;;;8.85;;
34072;SDS011;20346;52.702;16.886;2022-11-03T01:09:20;15.13;;;8.38;;
34072;SDS011;20346;52.702;16.886;2022-11-03T01:12:18;15.90;;;8.80;;
34072;SDS011;20346;52.702;16.886;2022-11-03T01:15:03;16.30;;;8.98;;
34072;SDS011;20346;52.702;16.886;2022-11-03T01:17:48;18.97;;;8.87;;
34072;SDS011;20346;52.702;16.886;2022-11-03T01:20:33;12.68;;;8.23;;
34072;SDS011;20346;52.702;16.886;2022-11-03T01:23:18;22.65;;;9.43;;
34072;SDS011;20346;52.702;16.886;2022-11-03T01:26:04;19.87;;;9.45;;
34072;SDS011;20346;52.702;16.886;2022-11-03T01:28:53;13.50;;;8.35;;
34072;SDS011;20346;52.702;16.886;2022-11-03T01:31:38;19.35;;;9.23;;
34072;SDS011;20346;52.702;16.886;2022-11-03T01:34:23;17.00;;;8.50;;
34072;SDS011;20346;52.702;16.886;2022-11-03T01:37:08;17.27;;;9.08;;
34072;SDS011;20346;52.702;16.886;2022-11-03T01:39:54;15.55;;;8.88;;
34072;SDS011;20346;52.702;16.886;2022-11-03T01:42:39;17.00;;;8.70;;
34072;SDS011;20346;52.702;16.886;2022-11-03T01:45:24;16.90;;;8.68;;
34072;SDS011;20346;52.702;16.886;2022-11-03T01:48:09;17.77;;;9.33;;
34072;SDS011;20346;52.702;16.886;2022-11-03T01:50:56;14.93;;;7.97;;
34072;SDS011;20346;52.702;16.886;2022-11-03T01:53:41;17.02;;;7.87;;
34072;SDS011;20346;52.702;16.886;2022-11-03T01:56:29;16.02;;;7.55;;
34072;SDS011;20346;52.702;16.886;2022-11-03T01:59:18;14.20;;;7.15;;
34072;SDS011;20346;52.702;16.886;2022-11-03T02:02:06;12.55;;;6.28;;
34072;SDS011;20346;52.702;16.886;2022-11-03T02:04:52;9.90;;;6.42;;
34072;SDS011;20346;52.702;16.886;2022-11-03T02:10:46;11.50;;;5.85;;
34072;SDS011;20346;52.702;16.886;2022-11-03T02:16:18;17.60;;;6.42;;
34072;SDS011;20346;52.702;16.886;2022-11-03T02:19:05;11.80;;;6.30;;
34072;SDS011;20346;52.702;16.886;2022-11-03T02:22:01;10.10;;;6.35;;
34072;SDS011;20346;52.702;16.886;2022-11-03T02:28:34;11.68;;;6.50;;
34072;SDS011;20346;52.702;16.886;2022-11-03T02:31:22;10.80;;;5.85;;
34072;SDS011;20346;52.702;16.886;2022-11-03T02:34:28;12.00;;;5.22;;
34072;SDS011;20346;52.702;16.886;2022-11-03T02:37:29;14.18;;;6.25;;
34072;SDS011;20346;52.702;16.886;2022-11-03T02:40:25;11.22;;;5.85;;
34072;SDS011;20346;52.702;16.886;2022-11-03T02:43:18;10.32;;;5.87;;
34072;SDS011;20346;52.702;16.886;2022-11-03T02:46:07;10.90;;;5.53;;
34072;SDS011;20346;52.702;16.886;2022-11-03T02:48:55;11.10;;;6.17;;
34072;SDS011;20346;52.702;16.886;2022-11-03T02:51:40;9.63;;;5.50;;
34072;SDS011;20346;52.702;16.886;2022-11-03T02:54:27;10.05;;;5.75;;
34072;SDS011;20346;52.702;16.886;2022-11-03T02:57:22;12.07;;;5.87;;
34072;SDS011;20346;52.702;16.886;2022-11-03T03:00:10;11.35;;;5.75;;
34072;SDS011;20346;52.702;16.886;2022-11-03T03:02:58;8.88;;;5.22;;
34072;SDS011;20346;52.702;16.886;2022-11-03T03:05:47;8.93;;;5.90;;
34072;SDS011;20346;52.702;16.886;2022-11-03T03:08:34;9.05;;;5.87;;
34072;SDS011;20346;52.702;16.886;2022-11-03T03:11:24;10.85;;;6.28;;
34072;SDS011;20346;52.702;16.886;2022-11-03T03:14:27;10.60;;;5.42;;
34072;SDS011;20346;52.702;16.886;2022-11-03T03:26:07;11.05;;;5.80;;
34072;SDS011;20346;52.702;16.886;2022-11-03T03:29:00;11.00;;;5.40;;
34072;SDS011;20346;52.702;16.886;2022-11-03T03:34:40;9.33;;;4.70;;
34072;SDS011;20346;52.702;16.886;2022-11-03T03:37:27;8.63;;;5.47;;
34072;SDS011;20346;52.702;16.886;2022-11-03T03:40:16;9.95;;;5.70;;
34072;SDS011;20346;52.702;16.886;2022-11-03T03:43:05;10.15;;;5.80;;
34072;SDS011;20346;52.702;16.886;2022-11-03T03:45:53;10.82;;;4.95;;
34072;SDS011;20346;52.702;16.886;2022-11-03T03:48:43;10.40;;;5.70;;
34072;SDS011;20346;52.702;16.886;2022-11-03T03:51:29;14.00;;;5.97;;
34072;SDS011;20346;52.702;16.886;2022-11-03T03:54:15;9.95;;;6.15;;
34072;SDS011;20346;52.702;16.886;2022-11-03T03:57:02;13.08;;;5.92;;
34072;SDS011;20346;52.702;16.886;2022-11-03T03:59:49;16.85;;;6.92;;
34072;SDS011;20346;52.702;16.886;2022-11-03T04:02:34;15.90;;;6.67;;
34072;SDS011;20346;52.702;16.886;2022-11-03T04:05:19;8.53;;;6.35;;
34072;SDS011;20346;52.702;16.886;2022-11-03T04:08:04;12.15;;;5.62;;
34072;SDS011;20346;52.702;16.886;2022-11-03T04:10:49;11.57;;;6.55;;
34072;SDS011;20346;52.702;16.886;2022-11-03T04:13:52;14.47;;;7.60;;
34072;SDS011;20346;52.702;16.886;2022-11-03T04:16:55;12.15;;;5.50;;
34072;SDS011;20346;52.702;16.886;2022-11-03T04:19:59;9.03;;;5.65;;
34072;SDS011;20346;52.702;16.886;2022-11-03T04:23:02;9.45;;;5.85;;
34072;SDS011;20346;52.702;16.886;2022-11-03T04:25:47;11.05;;;6.25;;
34072;SDS011;20346;52.702;16.886;2022-11-03T04:28:36;10.70;;;5.72;;
34072;SDS011;20346;52.702;16.886;2022-11-03T04:31:21;14.87;;;5.30;;
34072;SDS011;20346;52.702;16.886;2022-11-03T04:34:09;11.30;;;5.97;;
34072;SDS011;20346;52.702;16.886;2022-11-03T04:36:56;11.57;;;6.50;;
34072;SDS011;20346;52.702;16.886;2022-11-03T04:39:41;8.70;;;5.55;;
34072;SDS011;20346;52.702;16.886;2022-11-03T04:42:26;6.37;;;4.62;;
34072;SDS011;20346;52.702;16.886;2022-11-03T04:45:30;6.65;;;3.72;;
34072;SDS011;20346;52.702;16.886;2022-11-03T04:48:21;6.62;;;3.90;;
34072;SDS011;20346;52.702;16.886;2022-11-03T04:51:15;7.22;;;5.30;;
34072;SDS011;20346;52.702;16.886;2022-11-03T04:54:02;5.75;;;5.15;;
34072;SDS011;20346;52.702;16.886;2022-11-03T04:56:51;8.48;;;4.75;;
34072;SDS011;20346;52.702;16.886;2022-11-03T04:59:36;6.72;;;4.53;;
34072;SDS011;20346;52.702;16.886;2022-11-03T05:02:21;6.67;;;3.47;;
34072;SDS011;20346;52.702;16.886;2022-11-03T05:05:16;10.98;;;5.10;;
34072;SDS011;20346;52.702;16.886;2022-11-03T05:08:08;8.40;;;5.10;;
34072;SDS011;20346;52.702;16.886;2022-11-03T05:10:53;8.23;;;5.10;;
34072;SDS011;20346;52.702;16.886;2022-11-03T05:13:38;7.20;;;5.40;;
34072;SDS011;20346;52.702;16.886;2022-11-03T05:16:23;7.70;;;5.65;;
34072;SDS011;20346;52.702;16.886;2022-11-03T05:19:17;7.67;;;5.05;;
34072;SDS011;20346;52.702;16.886;2022-11-03T05:22:04;12.28;;;4.95;;
34072;SDS011;20346;52.702;16.886;2022-11-03T05:24:55;8.65;;;4.97;;
34072;SDS011;20346;52.702;16.886;2022-11-03T05:27:43;10.98;;;6.05;;
34072;SDS011;20346;52.702;16.886;2022-11-03T05:30:28;7.45;;;5.15;;
34072;SDS011;20346;52.702;16.886;2022-11-03T05:33:15;5.20;;;4.50;;
34072;SDS011;20346;52.702;16.886;2022-11-03T05:36:23;8.73;;;5.37;;
34072;SDS011;20346;52.702;16.886;2022-11-03T05:48:25;8.95;;;4.95;;
34072;SDS011;20346;52.702;16.886;2022-11-03T05:51:17;8.03;;;4.67;;
34072;SDS011;20346;52.702;16.886;2022-11-03T05:54:44;8.75;;;5.55;;
34072;SDS011;20346;52.702;16.886;2022-11-03T05:57:09;13.68;;;5.97;;
34072;SDS011;20346;52.702;16.886;2022-11-03T05:59:57;10.10;;;5.87;;
34072;SDS011;20346;52.702;16.886;2022-11-03T06:02:42;9.88;;;5.37;;
34072;SDS011;20346;52.702;16.886;2022-11-03T06:05:29;13.03;;;6.00;;
34072;SDS011;20346;52.702;16.886;2022-11-03T06:08:23;11.18;;;6.03;;
34072;SDS011;20346;52.702;16.886;2022-11-03T06:11:07;11.63;;;6.85;;
34072;SDS011;20346;52.702;16.886;2022-11-03T06:13:57;10.43;;;6.55;;
34072;SDS011;20346;52.702;16.886;2022-11-03T06:16:45;10.68;;;6.75;;
34072;SDS011;20346;52.702;16.886;2022-11-03T06:19:40;11.10;;;6.62;;
34072;SDS011;20346;52.702;16.886;2022-11-03T06:22:36;16.52;;;7.20;;
34072;SDS011;20346;52.702;16.886;2022-11-03T06:25:31;12.75;;;7.30;;
34072;SDS011;20346;52.702;16.886;2022-11-03T06:28:20;9.95;;;6.33;;
34072;SDS011;20346;52.702;16.886;2022-11-03T06:31:23;12.43;;;7.53;;
34072;SDS011;20346;52.702;16.886;2022-11-03T06:34:24;16.27;;;7.58;;
34072;SDS011;20346;52.702;16.886;2022-11-03T06:37:21;25.43;;;9.45;;
34072;SDS011;20346;52.702;16.886;2022-11-03T06:43:19;12.15;;;7.60;;
34072;SDS011;20346;52.702;16.886;2022-11-03T06:46:20;12.28;;;6.72;;
34072;SDS011;20346;52.702;16.886;2022-11-03T06:49:20;12.25;;;7.65;;
34072;SDS011;20346;52.702;16.886;2022-11-03T06:52:28;11.55;;;7.30;;
34072;SDS011;20346;52.702;16.886;2022-11-03T07:01:28;15.03;;;7.40;;
34072;SDS011;20346;52.702;16.886;2022-11-03T07:07:09;14.35;;;7.35;;
34072;SDS011;20346;52.702;16.886;2022-11-03T07:09:54;15.13;;;7.92;;
34072;SDS011;20346;52.702;16.886;2022-11-03T07:12:40;15.23;;;7.15;;
34072;SDS011;20346;52.702;16.886;2022-11-03T07:21:24;12.23;;;6.62;;
34072;SDS011;20346;52.702;16.886;2022-11-03T07:24:24;15.60;;;7.30;;
34072;SDS011;20346;52.702;16.886;2022-11-03T07:30:15;12.03;;;7.25;;
34072;SDS011;20346;52.702;16.886;2022-11-03T07:33:16;14.93;;;7.05;;
34072;SDS011;20346;52.702;16.886;2022-11-03T07:36:09;19.85;;;7.25;;
34072;SDS011;20346;52.702;16.886;2022-11-03T07:39:04;16.37;;;7.58;;
34072;SDS011;20346;52.702;16.886;2022-11-03T07:41:52;15.32;;;6.97;;
34072;SDS011;20346;52.702;16.886;2022-11-03T07:44:36;12.65;;;6.75;;
34072;SDS011;20346;52.702;16.886;2022-11-03T07:47:23;13.03;;;6.87;;
34072;SDS011;20346;52.702;16.886;2022-11-03T07:50:13;15.13;;;6.70;;
34072;SDS011;20346;52.702;16.886;2022-11-03T07:52:59;10.95;;;7.08;;
34072;SDS011;20346;52.702;16.886;2022-11-03T07:55:44;10.38;;;7.10;;
34072;SDS011;20346;52.702;16.886;2022-11-03T07:58:36;15.28;;;7.12;;
34072;SDS011;20346;52.702;16.886;2022-11-03T08:01:24;14.87;;;7.33;;
34072;SDS011;20346;52.702;16.886;2022-11-03T08:04:16;11.78;;;7.12;;
34072;SDS011;20346;52.702;16.886;2022-11-03T08:07:05;14.98;;;7.10;;
34072;SDS011;20346;52.702;16.886;2022-11-03T08:09:50;12.70;;;6.97;;
34072;SDS011;20346;52.702;16.886;2022-11-03T08:12:36;12.88;;;7.17;;
34072;SDS011;20346;52.702;16.886;2022-11-03T08:15:20;12.30;;;6.12;;
34072;SDS011;20346;52.702;16.886;2022-11-03T08:18:05;13.88;;;6.90;;
34072;SDS011;20346;52.702;16.886;2022-11-03T08:20:50;12.78;;;6.83;;
34072;SDS011;20346;52.702;16.886;2022-11-03T08:23:35;18.73;;;7.20;;
34072;SDS011;20346;52.702;16.886;2022-11-03T08:26:20;14.75;;;7.62;;
34072;SDS011;20346;52.702;16.886;2022-11-03T08:29:06;14.00;;;6.75;;
34072;SDS011;20346;52.702;16.886;2022-11-03T08:31:51;13.90;;;7.10;;
34072;SDS011;20346;52.702;16.886;2022-11-03T08:34:37;14.10;;;7.45;;
34072;SDS011;20346;52.702;16.886;2022-11-03T08:37:22;12.20;;;6.97;;
34072;SDS011;20346;52.702;16.886;2022-11-03T08:40:07;11.97;;;6.90;;
34072;SDS011;20346;52.702;16.886;2022-11-03T08:45:38;15.68;;;6.90;;
34072;SDS011;20346;52.702;16.886;2022-11-03T08:48:23;13.60;;;6.90;;
34072;SDS011;20346;52.702;16.886;2022-11-03T08:51:09;15.48;;;7.60;;
34072;SDS011;20346;52.702;16.886;2022-11-03T08:56:40;9.68;;;6.03;;
34072;SDS011;20346;52.702;16.886;2022-11-03T08:59:26;12.80;;;6.92;;
34072;SDS011;20346;52.702;16.886;2022-11-03T09:02:11;12.60;;;7.25;;
34072;SDS011;20346;52.702;16.886;2022-11-03T09:04:56;13.90;;;6.83;;
34072;SDS011;20346;52.702;16.886;2022-11-03T09:07:40;19.12;;;6.83;;
34072;SDS011;20346;52.702;16.886;2022-11-03T09:10:26;13.43;;;6.20;;
34072;SDS011;20346;52.702;16.886;2022-11-03T09:13:11;10.27;;;6.47;;
34072;SDS011;20346;52.702;16.886;2022-11-03T09:15:57;8.75;;;6.30;;
34072;SDS011;20346;52.702;16.886;2022-11-03T09:18:42;14.65;;;6.67;;
34072;SDS011;20346;52.702;16.886;2022-11-03T09:21:28;16.00;;;6.90;;
34072;SDS011;20346;52.702;16.886;2022-11-03T09:24:13;13.05;;;6.60;;
34072;SDS011;20346;52.702;16.886;2022-11-03T09:26:58;9.58;;;6.03;;
34072;SDS011;20346;52.702;16.886;2022-11-03T09:29:43;13.83;;;6.90;;
34072;SDS011;20346;52.702;16.886;2022-11-03T09:32:28;13.58;;;5.83;;
34072;SDS011;20346;52.702;16.886;2022-11-03T09:35:14;10.10;;;6.10;;
34072;SDS011;20346;52.702;16.886;2022-11-03T09:37:59;17.10;;;6.83;;
34072;SDS011;20346;52.702;16.886;2022-11-03T09:40:44;14.38;;;7.15;;
34072;SDS011;20346;52.702;16.886;2022-11-03T09:43:30;13.80;;;5.50;;
34072;SDS011;20346;52.702;16.886;2022-11-03T09:46:15;13.67;;;5.90;;
34072;SDS011;20346;52.702;16.886;2022-11-03T09:49:01;9.75;;;5.17;;
34072;SDS011;20346;52.702;16.886;2022-11-03T09:51:48;11.40;;;5.47;;
34072;SDS011;20346;52.702;16.886;2022-11-03T09:54:33;11.90;;;5.87;;
34072;SDS011;20346;52.702;16.886;2022-11-03T09:57:18;10.00;;;5.25;;
34072;SDS011;20346;52.702;16.886;2022-11-03T10:00:03;10.85;;;5.50;;
34072;SDS011;20346;52.702;16.886;2022-11-03T10:02:52;14.90;;;5.65;;
34072;SDS011;20346;52.702;16.886;2022-11-03T10:05:38;15.28;;;5.22;;
34072;SDS011;20346;52.702;16.886;2022-11-03T10:08:26;12.47;;;5.40;;
34072;SDS011;20346;52.702;16.886;2022-11-03T10:11:15;11.60;;;5.58;;
34072;SDS011;20346;52.702;16.886;2022-11-03T10:14:00;12.58;;;5.22;;
34072;SDS011;20346;52.702;16.886;2022-11-03T10:16:54;10.72;;;5.47;;
34072;SDS011;20346;52.702;16.886;2022-11-03T10:19:47;12.18;;;4.92;;
34072;SDS011;20346;52.702;16.886;2022-11-03T10:22:34;10.53;;;4.87;;
34072;SDS011;20346;52.702;16.886;2022-11-03T10:28:22;18.80;;;5.87;;
34072;SDS011;20346;52.702;16.886;2022-11-03T10:31:19;13.05;;;4.55;;
34072;SDS011;20346;52.702;16.886;2022-11-03T10:34:05;8.70;;;4.28;;
34072;SDS011;20346;52.702;16.886;2022-11-03T10:37:18;8.50;;;4.58;;
34072;SDS011;20346;52.702;16.886;2022-11-03T10:40:31;10.70;;;4.12;;
34072;SDS011;20346;52.702;16.886;2022-11-03T10:43:18;8.58;;;4.00;;
34072;SDS011;20346;52.702;16.886;2022-11-03T10:46:17;10.48;;;4.17;;
34072;SDS011;20346;52.702;16.886;2022-11-03T10:49:15;10.10;;;4.42;;
34072;SDS011;20346;52.702;16.886;2022-11-03T10:55:06;10.00;;;3.98;;
34072;SDS011;20346;52.702;16.886;2022-11-03T10:57:52;10.35;;;3.67;;
34072;SDS011;20346;52.702;16.886;2022-11-03T11:00:39;8.25;;;3.40;;
34072;SDS011;20346;52.702;16.886;2022-11-03T11:03:26;11.45;;;3.98;;
34072;SDS011;20346;52.702;16.886;2022-11-03T11:06:29;13.58;;;4.53;;
34072;SDS011;20346;52.702;16.886;2022-11-03T11:09:08;6.25;;;2.90;;
34072;SDS011;20346;52.702;16.886;2022-11-03T11:12:03;6.37;;;2.27;;
34072;SDS011;20346;52.702;16.886;2022-11-03T11:14:54;10.70;;;1.85;;
34072;SDS011;20346;52.702;16.886;2022-11-03T11:17:43;8.40;;;1.92;;
34072;SDS011;20346;52.702;16.886;2022-11-03T11:20:36;8.43;;;1.90;;
34072;SDS011;20346;52.702;16.886;2022-11-03T11:33:11;8.35;;;2.75;;
34072;SDS011;20346;52.702;16.886;2022-11-03T11:44:56;6.50;;;2.42;;
34072;SDS011;20346;52.702;16.886;2022-11-03T11:47:46;5.97;;;2.45;;
34072;SDS011;20346;52.702;16.886;2022-11-03T11:50:33;6.12;;;2.15;;
34072;SDS011;20346;52.702;16.886;2022-11-03T11:53:19;6.35;;;2.22;;
34072;SDS011;20346;52.702;16.886;2022-11-03T11:56:11;8.25;;;2.02;;
34072;SDS011;20346;52.702;16.886;2022-11-03T11:58:55;4.60;;;2.02;;
34072;SDS011;20346;52.702;16.886;2022-11-03T12:01:40;4.85;;;2.15;;
34072;SDS011;20346;52.702;16.886;2022-11-03T12:04:26;7.97;;;1.82;;
34072;SDS011;20346;52.702;16.886;2022-11-03T12:07:15;10.32;;;2.30;;
34072;SDS011;20346;52.702;16.886;2022-11-03T12:13:33;11.15;;;2.00;;
34072;SDS011;20346;52.702;16.886;2022-11-03T12:16:26;4.30;;;2.10;;
34072;SDS011;20346;52.702;16.886;2022-11-03T12:25:33;6.05;;;2.67;;
34072;SDS011;20346;52.702;16.886;2022-11-03T12:28:30;4.67;;;2.50;;
34072;SDS011;20346;52.702;16.886;2022-11-03T12:31:18;8.65;;;3.10;;
34072;SDS011;20346;52.702;16.886;2022-11-03T12:34:03;3.72;;;2.47;;
34072;SDS011;20346;52.702;16.886;2022-11-03T12:36:48;7.90;;;2.42;;
34072;SDS011;20346;52.702;16.886;2022-11-03T12:39:33;5.92;;;2.10;;
34072;SDS011;20346;52.702;16.886;2022-11-03T12:42:19;9.38;;;2.27;;
34072;SDS011;20346;52.702;16.886;2022-11-03T12:45:05;6.47;;;2.17;;
34072;SDS011;20346;52.702;16.886;2022-11-03T12:47:51;6.92;;;2.87;;
34072;SDS011;20346;52.702;16.886;2022-11-03T12:50:37;12.20;;;3.17;;
34072;SDS011;20346;52.702;16.886;2022-11-03T12:53:22;5.97;;;2.13;;
34072;SDS011;20346;52.702;16.886;2022-11-03T12:56:07;7.10;;;2.20;;
34072;SDS011;20346;52.702;16.886;2022-11-03T12:58:53;7.62;;;2.92;;
34072;SDS011;20346;52.702;16.886;2022-11-03T13:01:38;7.05;;;2.83;;
34072;SDS011;20346;52.702;16.886;2022-11-03T13:04:23;5.90;;;2.52;;
34072;SDS011;20346;52.702;16.886;2022-11-03T13:07:08;6.30;;;2.60;;
34072;SDS011;20346;52.702;16.886;2022-11-03T13:09:53;8.95;;;2.75;;
34072;SDS011;20346;52.702;16.886;2022-11-03T13:12:38;6.58;;;2.60;;
34072;SDS011;20346;52.702;16.886;2022-11-03T13:15:24;8.05;;;3.00;;
34072;SDS011;20346;52.702;16.886;2022-11-03T13:18:09;6.15;;;2.75;;
34072;SDS011;20346;52.702;16.886;2022-11-03T13:20:54;7.72;;;2.45;;
34072;SDS011;20346;52.702;16.886;2022-11-03T13:23:39;9.13;;;2.77;;
34072;SDS011;20346;52.702;16.886;2022-11-03T13:26:25;8.55;;;2.50;;
34072;SDS011;20346;52.702;16.886;2022-11-03T13:29:10;10.70;;;2.75;;
34072;SDS011;20346;52.702;16.886;2022-11-03T13:31:55;16.17;;;2.77;;
34072;SDS011;20346;52.702;16.886;2022-11-03T13:34:40;7.83;;;3.12;;
34072;SDS011;20346;52.702;16.886;2022-11-03T13:37:25;7.28;;;3.50;;
34072;SDS011;20346;52.702;16.886;2022-11-03T13:40:10;12.47;;;3.80;;
34072;SDS011;20346;52.702;16.886;2022-11-03T13:42:56;8.03;;;3.77;;
34072;SDS011;20346;52.702;16.886;2022-11-03T13:45:41;7.97;;;2.77;;
34072;SDS011;20346;52.702;16.886;2022-11-03T13:48:27;9.70;;;3.58;;
34072;SDS011;20346;52.702;16.886;2022-11-03T13:51:12;5.53;;;2.50;;
34072;SDS011;20346;52.702;16.886;2022-11-03T13:53:58;12.47;;;2.83;;
34072;SDS011;20346;52.702;16.886;2022-11-03T13:56:43;7.00;;;2.60;;
34072;SDS011;20346;52.702;16.886;2022-11-03T14:02:14;8.58;;;2.12;;
34072;SDS011;20346;52.702;16.886;2022-11-03T14:04:59;8.00;;;2.27;;
34072;SDS011;20346;52.702;16.886;2022-11-03T14:07:44;8.25;;;2.67;;
34072;SDS011;20346;52.702;16.886;2022-11-03T14:10:30;8.18;;;2.25;;
34072;SDS011;20346;52.702;16.886;2022-11-03T14:13:15;10.63;;;2.25;;
34072;SDS011;20346;52.702;16.886;2022-11-03T14:16:00;7.83;;;2.10;;
34072;SDS011;20346;52.702;16.886;2022-11-03T14:18:45;9.85;;;2.40;;
34072;SDS011;20346;52.702;16.886;2022-11-03T14:21:30;6.40;;;3.22;;
34072;SDS011;20346;52.702;16.886;2022-11-03T14:24:15;6.10;;;2.17;;
34072;SDS011;20346;52.702;16.886;2022-11-03T14:27:00;8.98;;;2.90;;
34072;SDS011;20346;52.702;16.886;2022-11-03T14:29:45;7.72;;;2.85;;
34072;SDS011;20346;52.702;16.886;2022-11-03T14:32:32;5.60;;;2.62;;
34072;SDS011;20346;52.702;16.886;2022-11-03T14:35:17;12.20;;;2.67;;
34072;SDS011;20346;52.702;16.886;2022-11-03T14:38:04;10.95;;;3.22;;
34072;SDS011;20346;52.702;16.886;2022-11-03T14:40:49;5.62;;;2.83;;
34072;SDS011;20346;52.702;16.886;2022-11-03T14:43:52;7.17;;;2.40;;
34072;SDS011;20346;52.702;16.886;2022-11-03T14:46:38;6.10;;;2.55;;
34072;SDS011;20346;52.702;16.886;2022-11-03T14:49:23;7.60;;;2.35;;
34072;SDS011;20346;52.702;16.886;2022-11-03T14:52:08;5.67;;;2.55;;
34072;SDS011;20346;52.702;16.886;2022-11-03T14:54:54;13.00;;;3.70;;
34072;SDS011;20346;52.702;16.886;2022-11-03T14:57:39;10.80;;;3.05;;
34072;SDS011;20346;52.702;16.886;2022-11-03T15:00:24;9.90;;;3.33;;
34072;SDS011;20346;52.702;16.886;2022-11-03T15:03:09;7.25;;;3.15;;
34072;SDS011;20346;52.702;16.886;2022-11-03T15:05:55;7.25;;;3.10;;
34072;SDS011;20346;52.702;16.886;2022-11-03T15:08:40;7.87;;;3.40;;
34072;SDS011;20346;52.702;16.886;2022-11-03T15:11:25;8.18;;;3.60;;
34072;SDS011;20346;52.702;16.886;2022-11-03T15:14:10;12.07;;;4.15;;
34072;SDS011;20346;52.702;16.886;2022-11-03T15:16:56;13.23;;;3.73;;
34072;SDS011;20346;52.702;16.886;2022-11-03T15:19:41;6.85;;;2.87;;
34072;SDS011;20346;52.702;16.886;2022-11-03T15:22:26;10.45;;;3.62;;
34072;SDS011;20346;52.702;16.886;2022-11-03T15:25:12;9.45;;;3.47;;
34072;SDS011;20346;52.702;16.886;2022-11-03T15:27:57;10.20;;;3.42;;
34072;SDS011;20346;52.702;16.886;2022-11-03T15:30:42;10.07;;;3.27;;
34072;SDS011;20346;52.702;16.886;2022-11-03T15:33:27;7.37;;;3.02;;
34072;SDS011;20346;52.702;16.886;2022-11-03T15:36:13;8.87;;;3.20;;
34072;SDS011;20346;52.702;16.886;2022-11-03T15:38:59;11.00;;;3.17;;
34072;SDS011;20346;52.702;16.886;2022-11-03T15:41:44;13.03;;;3.27;;
34072;SDS011;20346;52.702;16.886;2022-11-03T15:44:29;7.87;;;2.95;;
34072;SDS011;20346;52.702;16.886;2022-11-03T15:47:14;10.53;;;3.50;;
34072;SDS011;20346;52.702;16.886;2022-11-03T15:49:59;7.60;;;3.20;;
34072;SDS011;20346;52.702;16.886;2022-11-03T15:52:44;10.82;;;3.27;;
34072;SDS011;20346;52.702;16.886;2022-11-03T15:55:29;11.35;;;3.40;;
34072;SDS011;20346;52.702;16.886;2022-11-03T15:58:14;8.85;;;3.60;;
34072;SDS011;20346;52.702;16.886;2022-11-03T16:01:04;7.25;;;3.08;;
34072;SDS011;20346;52.702;16.886;2022-11-03T16:03:46;4.55;;;2.92;;
34072;SDS011;20346;52.702;16.886;2022-11-03T16:06:31;8.90;;;3.42;;
34072;SDS011;20346;52.702;16.886;2022-11-03T16:09:17;12.10;;;4.12;;
34072;SDS011;20346;52.702;16.886;2022-11-03T16:12:02;14.33;;;4.45;;
34072;SDS011;20346;52.702;16.886;2022-11-03T16:14:47;7.37;;;3.45;;
34072;SDS011;20346;52.702;16.886;2022-11-03T16:17:33;9.23;;;3.42;;
34072;SDS011;20346;52.702;16.886;2022-11-03T16:20:18;5.70;;;3.27;;
34072;SDS011;20346;52.702;16.886;2022-11-03T16:23:04;12.88;;;4.20;;
34072;SDS011;20346;52.702;16.886;2022-11-03T16:25:49;9.80;;;3.80;;
34072;SDS011;20346;52.702;16.886;2022-11-03T16:28:34;9.98;;;5.15;;
34072;SDS011;20346;52.702;16.886;2022-11-03T16:31:19;11.53;;;5.20;;
34072;SDS011;20346;52.702;16.886;2022-11-03T16:34:04;13.65;;;5.20;;
34072;SDS011;20346;52.702;16.886;2022-11-03T16:36:49;10.35;;;4.87;;
34072;SDS011;20346;52.702;16.886;2022-11-03T16:39:34;13.50;;;5.30;;
34072;SDS011;20346;52.702;16.886;2022-11-03T16:42:21;12.53;;;5.37;;
34072;SDS011;20346;52.702;16.886;2022-11-03T16:45:12;14.55;;;6.10;;
34072;SDS011;20346;52.702;16.886;2022-11-03T16:48:04;11.63;;;5.08;;
34072;SDS011;20346;52.702;16.886;2022-11-03T16:50:49;8.28;;;5.30;;
34072;SDS011;20346;52.702;16.886;2022-11-03T16:53:34;12.50;;;5.28;;
34072;SDS011;20346;52.702;16.886;2022-11-03T16:56:20;12.58;;;4.70;;
34072;SDS011;20346;52.702;16.886;2022-11-03T16:59:05;10.43;;;5.05;;
34072;SDS011;20346;52.702;16.886;2022-11-03T17:01:50;11.88;;;5.58;;
34072;SDS011;20346;52.702;16.886;2022-11-03T17:04:35;8.67;;;5.13;;
34072;SDS011;20346;52.702;16.886;2022-11-03T17:07:21;12.40;;;5.35;;
34072;SDS011;20346;52.702;16.886;2022-11-03T17:10:07;9.85;;;4.92;;
34072;SDS011;20346;52.702;16.886;2022-11-03T17:12:53;9.40;;;5.42;;
34072;SDS011;20346;52.702;16.886;2022-11-03T17:15:37;13.88;;;5.58;;
34072;SDS011;20346;52.702;16.886;2022-11-03T17:18:23;9.20;;;4.75;;
34072;SDS011;20346;52.702;16.886;2022-11-03T17:21:08;10.72;;;5.33;;
34072;SDS011;20346;52.702;16.886;2022-11-03T17:23:53;13.03;;;5.33;;
34072;SDS011;20346;52.702;16.886;2022-11-03T17:26:45;8.88;;;5.25;;
34072;SDS011;20346;52.702;16.886;2022-11-03T17:29:45;10.23;;;5.30;;
34072;SDS011;20346;52.702;16.886;2022-11-03T17:32:34;11.85;;;6.00;;
34072;SDS011;20346;52.702;16.886;2022-11-03T17:35:40;13.98;;;5.83;;
34072;SDS011;20346;52.702;16.886;2022-11-03T17:38:28;14.13;;;5.45;;
34072;SDS011;20346;52.702;16.886;2022-11-03T17:41:13;14.75;;;6.37;;
34072;SDS011;20346;52.702;16.886;2022-11-03T17:43:58;17.60;;;6.25;;
34072;SDS011;20346;52.702;16.886;2022-11-03T17:46:43;12.10;;;6.12;;
34072;SDS011;20346;52.702;16.886;2022-11-03T17:49:28;13.08;;;6.47;;
34072;SDS011;20346;52.702;16.886;2022-11-03T17:52:15;16.85;;;6.83;;
34072;SDS011;20346;52.702;16.886;2022-11-03T17:55:03;15.98;;;5.80;;
34072;SDS011;20346;52.702;16.886;2022-11-03T17:57:53;9.75;;;5.72;;
34072;SDS011;20346;52.702;16.886;2022-11-03T18:00:42;14.03;;;5.85;;
34072;SDS011;20346;52.702;16.886;2022-11-03T18:03:27;17.90;;;6.60;;